Time;durP1;ratioP1;P1;durP2;ratioP2;P2;SDS_P1;SDS_P2;PMS_P1;PMS_P2;Temp;Humidity;BMP_temperature;BMP_pressure;BME280_temperature;BME280_humidity;BME280_pressure;Samples;Min_cycle;Max_cycle;Signal;HPM_P1;HPM_P2
2021/05/27 00:00:35;;;;;;;1.33;1.23;;;11.70;99.90;;;;;;5072894;28;20913;-58
2021/05/27 00:03:01;;;;;;;2.30;1.30;;;11.80;99.90;;;;;;5073016;28;20404;-59
2021/05/27 00:05:27;;;;;;;1.70;1.13;;;11.90;99.90;;;;;;5072965;28;20952;-59
2021/05/27 00:07:53;;;;;;;1.67;1.30;;;12.00;99.90;;;;;;5072971;28;20396;-59
2021/05/27 00:10:22;;;;;;;1.60;1.50;;;11.90;99.90;;;;;;5073433;28;20765;-59
2021/05/27 00:12:48;;;;;;;2.70;1.67;;;11.70;99.90;;;;;;5073242;28;20169;-57
2021/05/27 00:15:16;;;;;;;1.20;1.10;;;11.70;99.90;;;;;;5072764;28;20462;-56
2021/05/27 00:17:42;;;;;;;1.90;1.33;;;11.80;99.90;;;;;;5073607;28;20186;-52
2021/05/27 00:20:10;;;;;;;1.60;1.33;;;11.70;99.90;;;;;;5072780;28;20400;-59
2021/05/27 00:22:36;;;;;;;2.30;1.47;;;11.60;99.90;;;;;;5072957;28;20409;-59
2021/05/27 00:25:01;;;;;;;1.40;1.30;;;11.70;99.90;;;;;;5073222;28;20505;-59
2021/05/27 00:27:27;;;;;;;1.43;1.33;;;11.50;99.90;;;;;;5073537;28;20738;-60
2021/05/27 00:29:53;;;;;;;1.37;1.27;;;11.50;99.90;;;;;;5071658;28;20186;-59
2021/05/27 00:32:18;;;;;;;1.60;1.50;;;11.40;99.90;;;;;;5073302;28;20180;-59
2021/05/27 00:34:44;;;;;;;2.20;1.77;;;11.50;99.90;;;;;;5074029;28;20258;-57
2021/05/27 00:37:10;;;;;;;1.43;1.33;;;11.60;99.90;;;;;;5076450;28;20539;-59
2021/05/27 00:39:35;;;;;;;1.67;1.57;;;11.80;99.90;;;;;;5077072;28;20213;-58
2021/05/27 00:42:01;;;;;;;1.50;1.40;;;11.90;99.90;;;;;;5077117;28;20177;-60
2021/05/27 00:44:29;;;;;;;3.03;1.40;;;11.80;99.90;;;;;;5064850;28;20201;-60
2021/05/27 00:46:57;;;;;;;1.90;1.53;;;11.70;99.90;;;;;;5056658;28;20542;-57
2021/05/27 00:49:25;;;;;;;1.50;1.40;;;11.80;99.90;;;;;;5056115;28;20423;-59
2021/05/27 00:51:50;;;;;;;1.83;1.63;;;11.80;99.90;;;;;;5071858;28;20545;-58
2021/05/27 00:54:19;;;;;;;1.90;1.63;;;11.70;99.90;;;;;;5075850;28;20433;-59
2021/05/27 00:56:47;;;;;;;1.47;1.03;;;11.80;99.90;;;;;;5076544;28;20598;-59
2021/05/27 00:59:13;;;;;;;1.50;1.40;;;11.80;99.90;;;;;;5075306;28;20450;-60
2021/05/27 01:01:39;;;;;;;3.77;1.40;;;11.80;99.90;;;;;;5076023;28;20462;-60
2021/05/27 01:04:05;;;;;;;2.30;1.70;;;11.70;99.90;;;;;;5074310;28;20479;-59
2021/05/27 01:06:30;;;;;;;1.30;1.20;;;11.80;99.90;;;;;;5073231;28;20457;-58
2021/05/27 01:08:56;;;;;;;2.30;1.57;;;11.70;99.90;;;;;;5075516;28;20420;-58
2021/05/27 01:11:23;;;;;;;2.80;1.90;;;11.70;99.90;;;;;;5075647;28;20158;-58
2021/05/27 01:13:49;;;;;;;1.87;1.30;;;11.70;99.90;;;;;;5076555;28;20174;-58
2021/05/27 01:16:23;;;;;;;2.20;1.60;;;11.70;99.90;;;;;;5074789;28;20417;-58
2021/05/27 01:18:49;;;;;;;1.73;1.53;;;11.70;99.90;;;;;;5075533;28;20218;-59
2021/05/27 01:21:16;;;;;;;2.80;1.50;;;11.80;99.90;;;;;;5074805;28;20428;-58
2021/05/27 01:23:41;;;;;;;2.40;1.40;;;11.90;99.90;;;;;;5074657;28;20439;-60
2021/05/27 01:26:09;;;;;;;1.60;1.50;;;11.70;99.90;;;;;;5074976;28;20451;-60
2021/05/27 01:28:37;;;;;;;1.30;1.07;;;11.90;99.90;;;;;;5075815;28;20201;-59
2021/05/27 01:31:05;;;;;;;1.60;1.50;;;11.90;99.90;;;;;;5074645;28;20408;-59
2021/05/27 01:33:31;;;;;;;1.57;1.47;;;11.60;99.90;;;;;;5075003;28;20447;-59
2021/05/27 01:35:59;;;;;;;1.37;1.27;;;11.70;99.90;;;;;;5074977;28;20747;-58
2021/05/27 01:38:26;;;;;;;1.30;1.20;;;11.90;99.90;;;;;;5099878;22;20462;-51
2021/05/27 01:40:53;;;;;;;2.03;1.53;;;11.90;99.90;;;;;;5055556;28;20436;-50
2021/05/27 01:43:21;;;;;;;2.40;1.57;;;11.90;99.90;;;;;;5048948;28;20407;-47
2021/05/27 01:45:47;;;;;;;1.37;1.10;;;12.00;99.90;;;;;;5033826;28;20500;-46
2021/05/27 01:48:13;;;;;;;1.97;1.37;;;12.10;99.90;;;;;;5034244;28;20419;-48
2021/05/27 01:50:43;;;;;;;1.93;1.40;;;12.00;99.90;;;;;;5034879;28;20496;-48
2021/05/27 01:53:09;;;;;;;1.60;1.50;;;12.00;99.90;;;;;;5034240;28;20221;-47
2021/05/27 01:55:43;;;;;;;1.67;1.50;;;12.10;99.90;;;;;;5035004;28;20406;-51
2021/05/27 01:58:10;;;;;;;1.50;1.40;;;12.10;99.90;;;;;;5033707;28;20517;-47
2021/05/27 02:00:36;;;;;;;2.10;1.77;;;12.10;99.90;;;;;;5034670;28;20436;-50
2021/05/27 02:03:02;;;;;;;2.50;1.80;;;12.10;99.90;;;;;;5034675;28;20402;-49
2021/05/27 02:05:27;;;;;;;1.47;1.37;;;12.00;99.90;;;;;;5034242;28;20494;-48
2021/05/27 02:07:53;;;;;;;1.93;1.33;;;11.90;99.90;;;;;;5020133;28;20521;-48
2021/05/27 02:10:19;;;;;;;1.67;1.57;;;12.00;99.90;;;;;;5045788;28;20198;-51
2021/05/27 02:12:44;;;;;;;1.70;1.10;;;11.90;99.90;;;;;;5054431;28;20160;-46
2021/05/27 02:15:10;;;;;;;1.97;1.63;;;11.80;99.90;;;;;;5053956;28;20192;-48
2021/05/27 02:17:36;;;;;;;1.80;1.70;;;11.80;99.90;;;;;;5054303;28;20663;-49
2021/05/27 02:20:04;;;;;;;1.40;1.30;;;11.60;99.90;;;;;;5054572;28;20465;-47
2021/05/27 02:22:30;;;;;;;1.77;1.53;;;11.70;99.90;;;;;;5052959;28;20233;-50
2021/05/27 02:24:56;;;;;;;1.77;1.67;;;11.70;99.90;;;;;;5055009;28;20444;-47
2021/05/27 02:27:21;;;;;;;1.63;1.53;;;11.80;99.90;;;;;;5054139;28;20217;-48
2021/05/27 02:29:48;;;;;;;1.80;1.60;;;11.80;99.90;;;;;;5054065;28;20198;-49
2021/05/27 02:32:14;;;;;;;1.90;1.40;;;11.60;99.90;;;;;;5054170;28;20278;-50
2021/05/27 02:34:40;;;;;;;1.50;1.33;;;11.30;99.90;;;;;;5044770;28;20505;-48
2021/05/27 02:37:05;;;;;;;1.60;1.50;;;11.40;99.90;;;;;;5039488;28;20178;-47
2021/05/27 02:39:31;;;;;;;4.20;1.77;;;11.60;99.90;;;;;;5038142;28;20219;-48
2021/05/27 02:41:57;;;;;;;2.03;1.80;;;11.50;99.90;;;;;;5033446;28;20266;-47
2021/05/27 02:44:22;;;;;;;4.40;1.60;;;11.50;99.90;;;;;;5034097;28;20203;-48
2021/05/27 02:46:48;;;;;;;1.50;1.33;;;11.50;99.90;;;;;;5033848;28;20171;-48
2021/05/27 02:49:14;;;;;;;1.50;1.40;;;11.40;99.90;;;;;;5033478;28;20241;-50
2021/05/27 02:51:39;;;;;;;2.80;1.50;;;11.60;99.90;;;;;;5034025;28;20509;-46
2021/05/27 02:54:05;;;;;;;1.40;1.30;;;11.70;99.90;;;;;;5033725;28;20200;-47
2021/05/27 02:56:31;;;;;;;1.60;1.40;;;11.50;99.90;;;;;;5033743;28;20184;-47
2021/05/27 02:58:56;;;;;;;2.90;1.80;;;11.50;99.90;;;;;;5033634;28;20802;-50
2021/05/27 03:01:22;;;;;;;1.50;1.40;;;11.50;99.90;;;;;;5033831;28;20172;-51
2021/05/27 03:03:48;;;;;;;2.03;1.83;;;11.60;99.90;;;;;;5032531;28;20182;-47
2021/05/27 03:06:13;;;;;;;1.80;1.70;;;11.70;99.90;;;;;;5015888;28;20172;-46
2021/05/27 03:08:43;;;;;;;1.50;1.40;;;11.70;99.90;;;;;;5033638;28;20222;-48
2021/05/27 03:11:09;;;;;;;2.93;1.60;;;11.60;99.90;;;;;;5033188;28;20206;-47
2021/05/27 03:13:35;;;;;;;1.80;1.70;;;11.70;99.90;;;;;;5033447;28;20763;-48
2021/05/27 03:16:02;;;;;;;1.67;1.57;;;11.70;99.90;;;;;;5033421;28;20416;-49
2021/05/27 03:18:30;;;;;;;1.73;1.63;;;11.80;99.90;;;;;;5032926;28;20937;-48
2021/05/27 03:20:56;;;;;;;2.27;2.07;;;11.70;99.90;;;;;;5033408;28;20428;-49
2021/05/27 03:23:22;;;;;;;1.67;1.13;;;11.80;99.90;;;;;;5035091;28;20421;-51
2021/05/27 03:25:47;;;;;;;1.80;1.33;;;11.70;99.90;;;;;;5033142;28;20477;-50
2021/05/27 03:28:13;;;;;;;1.40;1.10;;;11.70;99.90;;;;;;5032502;28;20172;-46
2021/05/27 03:30:39;;;;;;;1.33;1.23;;;11.80;99.90;;;;;;5033128;28;20192;-48
2021/05/27 03:33:04;;;;;;;1.63;1.53;;;11.80;99.90;;;;;;5033146;28;20167;-48
2021/05/27 03:35:31;;;;;;;1.50;1.40;;;11.80;99.90;;;;;;5033930;28;20178;-46
2021/05/27 03:37:57;;;;;;;2.40;1.67;;;11.70;99.90;;;;;;5032567;28;20203;-49
2021/05/27 03:40:23;;;;;;;1.57;1.47;;;11.70;99.90;;;;;;5032481;28;21124;-51
2021/05/27 03:42:51;;;;;;;2.03;1.83;;;11.70;99.90;;;;;;5033065;28;20171;-48
2021/05/27 03:45:34;;;;;;;4.03;1.37;;;11.70;99.90;;;;;;5033159;28;20798;-47
2021/05/27 03:48:00;;;;;;;5.03;1.73;;;11.50;99.90;;;;;;5033275;28;20750;-50
2021/05/27 03:50:27;;;;;;;2.47;1.90;;;11.40;99.90;;;;;;5032869;28;20418;-51
2021/05/27 03:52:53;;;;;;;1.97;1.47;;;11.50;99.90;;;;;;5032915;28;20404;-46
2021/05/27 03:55:21;;;;;;;3.03;1.80;;;11.40;99.90;;;;;;5032386;28;20402;-50
2021/05/27 03:57:48;;;;;;;1.93;1.80;;;11.50;99.90;;;;;;5032557;28;20398;-47
2021/05/27 04:03:03;;;;;;;2.20;1.97;;;11.40;99.90;;;;;;5033465;28;20386;-46
2021/05/27 04:08:13;;;;;;;1.70;1.60;;;11.40;99.90;;;;;;5033226;28;20456;-46
2021/05/27 04:10:39;;;;;;;1.53;1.43;;;11.50;99.90;;;;;;5035665;28;20833;-50
2021/05/27 04:13:04;;;;;;;1.47;1.30;;;11.40;99.90;;;;;;5035688;28;20497;-48
2021/05/27 04:15:36;;;;;;;2.30;1.93;;;11.40;99.90;;;;;;5036722;28;20195;-49
2021/05/27 04:18:22;;;;;;;3.70;2.00;;;11.30;99.90;;;;;;5036416;28;20226;-48
2021/05/27 04:20:47;;;;;;;2.00;1.80;;;11.20;99.90;;;;;;5036267;28;20448;-45
2021/05/27 04:23:16;;;;;;;1.80;1.70;;;11.20;99.90;;;;;;5036857;28;20421;-46
2021/05/27 04:25:42;;;;;;;2.33;2.13;;;11.20;99.90;;;;;;5036757;28;20198;-50
2021/05/27 04:28:09;;;;;;;1.90;1.80;;;11.20;99.90;;;;;;5036463;28;20398;-48
2021/05/27 04:33:21;;;;;;;2.47;2.10;;;11.30;99.90;;;;;;5036265;28;20390;-46
2021/05/27 04:35:47;;;;;;;1.87;1.77;;;11.20;99.90;;;;;;5036662;28;20406;-47
2021/05/27 04:38:16;;;;;;;3.20;1.70;;;11.20;99.90;;;;;;5036311;28;20184;-45
2021/05/27 04:40:44;;;;;;;2.43;1.70;;;11.30;99.90;;;;;;5036506;28;20425;-47
2021/05/27 04:43:10;;;;;;;2.53;2.27;;;11.20;99.90;;;;;;5036359;28;20416;-45
2021/05/27 04:45:37;;;;;;;3.87;2.27;;;11.30;99.90;;;;;;5036363;28;20446;-46
2021/05/27 04:48:04;;;;;;;2.67;2.47;;;11.30;99.90;;;;;;5035418;28;20402;-52
2021/05/27 04:50:31;;;;;;;2.00;1.80;;;11.30;99.90;;;;;;5055634;28;20427;-49
2021/05/27 04:52:57;;;;;;;3.53;2.30;;;11.40;99.90;;;;;;5055990;28;20427;-48
2021/05/27 04:55:23;;;;;;;2.07;1.97;;;11.40;99.90;;;;;;5048474;28;20423;-46
2021/05/27 04:57:49;;;;;;;2.23;2.03;;;11.20;99.90;;;;;;5035566;28;20183;-51
2021/05/27 05:00:26;;;;;;;2.47;2.27;;;11.40;99.90;;;;;;5035272;28;20235;-46
2021/05/27 05:02:52;;;;;;;2.33;1.93;;;11.50;99.90;;;;;;5035649;28;20761;-49
2021/05/27 05:05:19;;;;;;;3.07;2.23;;;11.40;99.90;;;;;;5035918;28;20476;-47
2021/05/27 05:07:46;;;;;;;2.43;2.23;;;11.40;99.90;;;;;;5035335;28;20901;-46
2021/05/27 05:10:13;;;;;;;2.60;2.27;;;11.50;99.90;;;;;;5035879;28;20422;-48
2021/05/27 05:12:51;;;;;;;2.20;1.77;;;11.50;99.90;;;;;;5035910;28;20430;-48
2021/05/27 05:15:31;;;;;;;2.33;2.13;;;11.60;99.90;;;;;;5035856;28;20470;-49
2021/05/27 05:17:59;;;;;;;2.40;2.03;;;11.60;99.90;;;;;;5038243;28;20402;-51
2021/05/27 05:20:28;;;;;;;2.33;2.17;;;11.60;99.90;;;;;;5035289;28;20430;-46
2021/05/27 05:22:54;;;;;;;3.20;2.40;;;11.80;99.90;;;;;;5035223;28;20406;-50
2021/05/27 05:25:21;;;;;;;2.17;1.97;;;12.00;99.90;;;;;;5034624;28;20966;-46
2021/05/27 05:27:47;;;;;;;3.30;2.60;;;12.00;99.90;;;;;;5035314;28;20419;-49
2021/05/27 05:30:14;;;;;;;3.50;2.10;;;11.80;99.90;;;;;;5040274;28;20445;-47
2021/05/27 05:32:41;;;;;;;3.10;2.60;;;11.80;99.90;;;;;;5049626;28;20559;-48
2021/05/27 05:35:10;;;;;;;3.20;2.53;;;12.00;99.90;;;;;;5035107;28;20406;-50
2021/05/27 05:37:37;;;;;;;2.00;1.80;;;11.80;99.90;;;;;;5034958;28;20815;-51
2021/05/27 05:40:04;;;;;;;3.50;2.13;;;11.80;99.90;;;;;;5034320;28;20507;-49
2021/05/27 05:42:30;;;;;;;3.27;2.23;;;11.80;99.90;;;;;;5035038;28;20521;-50
2021/05/27 05:44:55;;;;;;;3.27;1.93;;;11.90;99.90;;;;;;5034608;28;20588;-50
2021/05/27 05:47:21;;;;;;;2.43;2.03;;;12.00;99.90;;;;;;5035247;28;20175;-48
2021/05/27 05:49:46;;;;;;;4.47;2.17;;;12.20;99.90;;;;;;5034924;28;20194;-49
2021/05/27 05:52:13;;;;;;;3.70;2.30;;;12.10;99.90;;;;;;5033592;28;20177;-49
2021/05/27 05:54:39;;;;;;;3.90;2.57;;;12.10;99.90;;;;;;5035059;28;20179;-53
2021/05/27 05:57:05;;;;;;;2.53;2.33;;;12.30;99.90;;;;;;5035027;28;20408;-48
2021/05/27 05:59:31;;;;;;;5.73;2.00;;;12.30;99.90;;;;;;5033609;28;20962;-50
2021/05/27 06:01:56;;;;;;;2.33;2.13;;;12.30;99.90;;;;;;5034683;28;20182;-45
2021/05/27 06:04:22;;;;;;;3.37;2.57;;;12.40;99.90;;;;;;5034769;28;20207;-49
2021/05/27 06:06:48;;;;;;;5.00;2.10;;;12.60;99.90;;;;;;5034356;28;20648;-49
2021/05/27 06:09:13;;;;;;;2.57;2.27;;;12.60;99.90;;;;;;5034367;28;20183;-47
2021/05/27 06:11:40;;;;;;;5.70;2.40;;;12.60;99.90;;;;;;5034773;28;20167;-47
2021/05/27 06:14:06;;;;;;;2.37;1.90;;;12.40;99.90;;;;;;5034089;28;20171;-51
2021/05/27 06:16:31;;;;;;;3.70;2.10;;;12.40;99.90;;;;;;5034698;28;20394;-47
2021/05/27 06:18:57;;;;;;;1.90;1.70;;;12.40;99.90;;;;;;5034207;28;20217;-52
2021/05/27 06:21:23;;;;;;;3.17;1.60;;;12.50;99.90;;;;;;5033982;28;20236;-51
2021/05/27 06:23:48;;;;;;;1.70;1.57;;;12.60;99.90;;;;;;5034237;28;20906;-50
2021/05/27 06:26:14;;;;;;;2.60;1.60;;;12.50;99.90;;;;;;5034536;28;20637;-54
2021/05/27 06:28:40;;;;;;;4.00;1.90;;;12.60;99.90;;;;;;5034201;28;20226;-53
2021/05/27 06:31:05;;;;;;;2.20;1.57;;;12.90;99.90;;;;;;5034446;28;20172;-49
2021/05/27 06:33:31;;;;;;;2.30;1.60;;;13.00;99.90;;;;;;5033297;28;20186;-52
2021/05/27 06:35:57;;;;;;;4.97;2.10;;;13.00;99.90;;;;;;5033520;28;20175;-51
2021/05/27 06:38:23;;;;;;;4.40;1.53;;;12.90;99.90;;;;;;5033871;28;20644;-49
2021/05/27 06:40:49;;;;;;;2.80;1.50;;;13.00;99.90;;;;;;5034333;28;20400;-48
2021/05/27 06:43:14;;;;;;;1.97;1.80;;;13.10;99.90;;;;;;5034454;28;20168;-47
2021/05/27 06:45:40;;;;;;;2.30;2.07;;;13.10;99.90;;;;;;5033629;28;20195;-49
2021/05/27 06:48:06;;;;;;;3.40;2.00;;;12.80;99.90;;;;;;5033777;28;20176;-52
2021/05/27 06:50:32;;;;;;;2.30;1.50;;;12.90;99.90;;;;;;5033617;28;20241;-54
2021/05/27 06:53:00;;;;;;;2.07;1.47;;;13.00;99.90;;;;;;5032699;28;20420;-52
2021/05/27 06:55:26;;;;;;;2.93;1.73;;;13.20;99.90;;;;;;5033996;28;20792;-52
2021/05/27 06:57:51;;;;;;;5.00;1.70;;;13.30;99.90;;;;;;5033598;28;20496;-51
2021/05/27 07:00:19;;;;;;;2.00;1.40;;;13.70;99.90;;;;;;5033861;28;20526;-49
2021/05/27 07:02:46;;;;;;;1.70;1.60;;;14.00;99.90;;;;;;5033876;28;20225;-53
2021/05/27 07:05:13;;;;;;;1.97;1.60;;;14.10;99.90;;;;;;5033537;28;20454;-50
2021/05/27 07:07:38;;;;;;;2.07;1.70;;;14.10;99.90;;;;;;5033642;28;20428;-52
2021/05/27 07:10:04;;;;;;;5.33;1.50;;;14.00;99.90;;;;;;5033673;28;20554;-46
2021/05/27 07:12:32;;;;;;;4.47;1.80;;;14.30;99.90;;;;;;5033678;28;20172;-50
2021/05/27 07:14:58;;;;;;;1.70;1.47;;;14.80;99.90;;;;;;5032624;28;20485;-49
2021/05/27 07:17:23;;;;;;;2.57;1.67;;;15.10;99.90;;;;;;5035881;28;20437;-50
2021/05/27 07:19:49;;;;;;;3.47;1.60;;;15.10;99.90;;;;;;5033643;28;20552;-54
2021/05/27 07:22:14;;;;;;;2.00;1.20;;;14.90;99.90;;;;;;5033195;28;20533;-52
2021/05/27 07:24:40;;;;;;;1.60;1.30;;;14.90;99.90;;;;;;5033280;28;20322;-49
2021/05/27 07:27:05;;;;;;;2.57;1.90;;;14.60;99.90;;;;;;5033337;28;20166;-48
2021/05/27 07:29:32;;;;;;;1.77;1.43;;;14.40;99.90;;;;;;5033083;28;20194;-51
2021/05/27 07:31:58;;;;;;;2.60;1.40;;;14.20;99.90;;;;;;5033484;28;20196;-49
2021/05/27 07:34:24;;;;;;;2.47;1.90;;;14.00;99.90;;;;;;5033325;28;20490;-52
2021/05/27 07:36:49;;;;;;;3.50;1.80;;;14.00;99.90;;;;;;5032517;28;20182;-49
2021/05/27 07:39:15;;;;;;;2.60;1.70;;;13.80;99.90;;;;;;5051653;22;21572;-58
2021/05/27 07:41:40;;;;;;;1.60;1.30;;;13.80;99.90;;;;;;5053618;28;20682;-57
2021/05/27 07:44:06;;;;;;;1.83;1.57;;;13.90;99.90;;;;;;5051288;28;20174;-55
2021/05/27 07:46:32;;;;;;;2.03;1.77;;;14.00;99.90;;;;;;5053261;28;20599;-60
2021/05/27 07:48:57;;;;;;;3.20;1.57;;;14.10;99.90;;;;;;5053509;28;20167;-55
2021/05/27 07:51:23;;;;;;;3.47;1.30;;;14.20;99.90;;;;;;5053215;28;20167;-56
2021/05/27 07:53:49;;;;;;;1.83;1.53;;;14.40;99.90;;;;;;5053138;28;20261;-58
2021/05/27 07:56:14;;;;;;;2.90;1.67;;;14.30;99.90;;;;;;5053058;28;20169;-57
2021/05/27 07:58:40;;;;;;;1.70;1.60;;;14.60;99.90;;;;;;5047708;28;20196;-57
2021/05/27 08:01:05;;;;;;;2.30;1.37;;;14.70;99.90;;;;;;5033406;28;20246;-59
2021/05/27 08:03:32;;;;;;;2.10;1.90;;;14.90;99.90;;;;;;5033220;28;20534;-59
2021/05/27 08:05:57;;;;;;;3.53;1.90;;;14.80;99.90;;;;;;5032911;28;20189;-60
2021/05/27 08:08:23;;;;;;;3.10;2.40;;;14.70;99.90;;;;;;5032986;28;20409;-60
2021/05/27 08:10:49;;;;;;;5.17;1.50;;;14.90;99.90;;;;;;5032976;28;20559;-57
2021/05/27 08:13:15;;;;;;;3.37;1.90;;;14.90;99.90;;;;;;5032784;28;20215;-57
2021/05/27 08:15:41;;;;;;;2.13;1.80;;;15.10;99.90;;;;;;5032699;28;20175;-58
2021/05/27 08:18:07;;;;;;;1.93;1.73;;;15.10;99.90;;;;;;5032189;28;20424;-60
2021/05/27 08:20:32;;;;;;;2.87;2.03;;;15.20;99.90;;;;;;5032708;28;20514;-59
2021/05/27 08:22:58;;;;;;;2.57;1.30;;;15.30;99.90;;;;;;5037018;28;20173;-59
2021/05/27 08:25:24;;;;;;;2.67;1.70;;;15.60;99.60;;;;;;5044991;28;20194;-59
2021/05/27 08:27:49;;;;;;;3.10;2.10;;;15.60;99.60;;;;;;5032823;28;20659;-59
2021/05/27 08:30:16;;;;;;;1.47;1.37;;;15.30;99.50;;;;;;5032815;28;20536;-57
2021/05/27 08:32:41;;;;;;;3.77;1.80;;;15.00;99.90;;;;;;5032727;28;20162;-54
2021/05/27 08:35:07;;;;;;;2.50;1.70;;;15.00;99.90;;;;;;5031880;28;20417;-55
2021/05/27 08:37:33;;;;;;;2.00;1.50;;;15.30;99.90;;;;;;5032619;28;20643;-55
2021/05/27 08:39:59;;;;;;;2.47;1.70;;;15.70;99.90;;;;;;5032491;28;20464;-56
2021/05/27 08:42:26;;;;;;;1.77;1.27;;;15.70;99.70;;;;;;5031962;28;20436;-56
2021/05/27 08:44:54;;;;;;;4.00;2.00;;;15.90;99.50;;;;;;5032879;28;20202;-56
2021/05/27 08:47:20;;;;;;;1.63;1.50;;;15.90;98.10;;;;;;5032759;28;20461;-56
2021/05/27 08:49:48;;;;;;;3.43;1.67;;;15.80;98.40;;;;;;5031730;28;20472;-55
2021/05/27 08:52:14;;;;;;;3.20;2.33;;;16.20;98.00;;;;;;5032668;28;20422;-56
2021/05/27 08:54:40;;;;;;;2.20;1.60;;;16.30;98.10;;;;;;5032566;28;20400;-55
2021/05/27 08:57:06;;;;;;;2.90;1.30;;;16.20;98.00;;;;;;5035543;28;20676;-56
2021/05/27 08:59:32;;;;;;;1.87;1.30;;;16.10;98.60;;;;;;5036254;28;20220;-56
2021/05/27 09:02:02;;;;;;;2.40;1.93;;;15.70;98.20;;;;;;5036260;28;20213;-55
2021/05/27 09:04:28;;;;;;;6.53;2.10;;;15.40;99.00;;;;;;5036141;28;20973;-56
2021/05/27 09:06:54;;;;;;;1.73;1.63;;;15.20;98.40;;;;;;5035765;28;20394;-57
2021/05/27 09:09:19;;;;;;;2.60;1.60;;;15.30;99.30;;;;;;5035751;28;20222;-56
2021/05/27 09:11:46;;;;;;;2.30;1.80;;;15.50;99.40;;;;;;5036029;28;20199;-56
2021/05/27 09:14:12;;;;;;;6.30;1.63;;;15.80;98.30;;;;;;5018179;28;20676;-53
2021/05/27 09:16:54;;;;;;;1.90;1.17;;;15.90;97.70;;;;;;5035960;28;20401;-54
2021/05/27 09:19:20;;;;;;;3.13;1.57;;;16.10;97.60;;;;;;5035560;28;20180;-55
2021/05/27 09:21:46;;;;;;;2.43;1.33;;;16.20;96.30;;;;;;5035900;28;20459;-56
2021/05/27 09:24:12;;;;;;;2.73;1.50;;;16.50;97.80;;;;;;5036565;28;20198;-59
2021/05/27 09:26:55;;;;;;;1.70;1.30;;;16.60;96.40;;;;;;5049355;28;20450;-56
2021/05/27 09:29:22;;;;;;;1.90;1.73;;;16.50;96.50;;;;;;5034903;28;20203;-57
2021/05/27 09:32:06;;;;;;;1.77;1.27;;;16.70;96.30;;;;;;5017570;28;20413;-58
2021/05/27 09:34:41;;;;;;;1.33;1.17;;;16.80;96.60;;;;;;5035662;28;20928;-57
2021/05/27 09:37:17;;;;;;;2.40;1.10;;;17.00;95.90;;;;;;5035284;28;20478;-57
2021/05/27 09:39:42;;;;;;;4.07;1.90;;;17.00;95.80;;;;;;5035501;28;20799;-57
2021/05/27 09:42:10;;;;;;;2.50;1.43;;;16.80;96.30;;;;;;5035495;28;20494;-58
2021/05/27 09:44:36;;;;;;;2.03;1.23;;;16.60;95.80;;;;;;5035218;28;20559;-57
2021/05/27 09:47:03;;;;;;;2.10;1.70;;;16.80;95.60;;;;;;5035139;28;20774;-57
2021/05/27 09:49:29;;;;;;;1.53;1.20;;;17.00;95.50;;;;;;5035438;28;20426;-57
2021/05/27 09:52:15;;;;;;;2.70;1.53;;;17.20;95.50;;;;;;5034411;28;20428;-57
2021/05/27 09:54:50;;;;;;;1.30;1.20;;;17.10;95.50;;;;;;5035538;28;20159;-56
2021/05/27 09:57:23;;;;;;;2.00;1.43;;;16.80;94.60;;;;;;5035206;28;20410;-56
2021/05/27 09:59:49;;;;;;;4.53;2.00;;;16.50;95.60;;;;;;5035558;28;20420;-56
2021/05/27 10:02:19;;;;;;;2.10;1.80;;;16.30;96.10;;;;;;5034883;28;20413;-53
2021/05/27 10:05:13;;;;;;;1.50;1.20;;;16.20;96.00;;;;;;5034028;28;20254;-59
2021/05/27 10:07:48;;;;;;;3.37;1.60;;;16.20;95.40;;;;;;5032789;28;20778;-56
2021/05/27 10:10:19;;;;;;;2.87;1.80;;;16.20;96.60;;;;;;5034931;28;20415;-57
2021/05/27 10:12:47;;;;;;;2.30;1.30;;;16.60;96.00;;;;;;5034577;28;20413;-56
2021/05/27 10:15:16;;;;;;;1.80;1.20;;;16.90;95.20;;;;;;5034675;28;20402;-56
2021/05/27 10:17:42;;;;;;;3.13;1.57;;;17.00;94.30;;;;;;5034928;28;20416;-55
2021/05/27 10:20:12;;;;;;;1.40;1.20;;;16.70;94.70;;;;;;5034566;28;20435;-53
2021/05/27 10:22:38;;;;;;;1.40;1.23;;;16.70;95.10;;;;;;5034692;28;20467;-57
2021/05/27 10:25:09;;;;;;;2.00;1.37;;;16.60;93.90;;;;;;5034774;28;20833;-55
2021/05/27 10:27:36;;;;;;;3.23;1.50;;;16.40;94.30;;;;;;5034507;28;20416;-57
2021/05/27 10:30:05;;;;;;;3.57;1.70;;;16.50;94.80;;;;;;5034649;28;20427;-57
2021/05/27 10:32:32;;;;;;;4.60;1.83;;;16.50;95.00;;;;;;5034031;28;20904;-56
2021/05/27 10:34:57;;;;;;;2.83;1.33;;;16.30;95.30;;;;;;5034183;28;20411;-57
2021/05/27 10:37:38;;;;;;;1.93;1.37;;;16.30;95.70;;;;;;5034912;28;20405;-56
2021/05/27 10:40:29;;;;;;;5.57;2.40;;;16.20;96.50;;;;;;5033188;28;20317;-57
2021/05/27 10:42:55;;;;;;;1.50;1.40;;;16.10;95.80;;;;;;5034199;28;20416;-55
2021/05/27 10:45:21;;;;;;;2.27;1.70;;;15.90;96.20;;;;;;5033896;28;20450;-55
2021/05/27 10:48:24;;;;;;;2.23;1.70;;;15.70;96.80;;;;;;5033684;28;20254;-57
2021/05/27 10:53:41;;;;;;;1.67;1.57;;;16.10;97.60;;;;;;5026934;28;20408;-53
2021/05/27 10:56:18;;;;;;;2.83;1.67;;;16.30;97.40;;;;;;5027673;28;20404;-56
2021/05/27 10:58:53;;;;;;;2.00;1.80;;;16.40;97.20;;;;;;5034619;28;20435;-54
2021/05/27 11:01:40;;;;;;;4.10;1.43;;;16.50;96.90;;;;;;5034509;28;20379;-53
2021/05/27 11:04:28;;;;;;;3.07;1.50;;;16.60;97.80;;;;;;5026675;28;20419;-56
2021/05/27 11:07:13;;;;;;;2.77;1.83;;;16.60;97.00;;;;;;5033629;28;20415;-55
2021/05/27 11:09:39;;;;;;;2.30;1.90;;;16.50;96.60;;;;;;5033694;28;20427;-54
2021/05/27 11:12:07;;;;;;;2.73;1.67;;;16.80;97.00;;;;;;5034319;28;20949;-55
2021/05/27 11:14:36;;;;;;;1.83;1.67;;;16.60;95.70;;;;;;5036116;28;20432;-56
2021/05/27 11:17:05;;;;;;;1.40;1.30;;;16.70;96.80;;;;;;5042053;28;20423;-56
2021/05/27 11:25:13;;;;;;;5.73;1.93;;;18.20;94.00;;;;;;5033579;28;20464;-55
2021/05/27 11:27:50;;;;;;;3.77;1.57;;;19.50;92.70;;;;;;5033392;28;20398;-57
2021/05/27 11:30:25;;;;;;;1.97;1.33;;;21.10;90.10;;;;;;5054583;28;20428;-56
2021/05/27 11:33:14;;;;;;;2.23;1.30;;;21.30;89.60;;;;;;5052969;28;20417;-56
2021/05/27 11:35:40;;;;;;;1.40;1.00;;;20.60;90.00;;;;;;5042748;28;20412;-56
2021/05/27 11:38:38;;;;;;;1.60;1.30;;;19.70;89.40;;;;;;5036315;28;20418;-57
2021/05/27 11:41:14;;;;;;;3.47;1.60;;;19.40;89.70;;;;;;5024615;28;20958;-57
2021/05/27 11:43:43;;;;;;;1.70;1.60;;;19.60;89.20;;;;;;5033299;28;20777;-56
2021/05/27 11:46:21;;;;;;;1.00;0.90;;;20.20;87.70;;;;;;5033146;28;20540;-56
2021/05/27 11:49:06;;;;;;;2.10;1.30;;;22.10;84.30;;;;;;5033277;28;20455;-54
2021/05/27 11:51:34;;;;;;;2.50;1.80;;;22.30;81.70;;;;;;5033151;28;20428;-56
2021/05/27 11:54:09;;;;;;;2.20;1.27;;;20.40;82.60;;;;;;5033243;28;20410;-53
2021/05/27 11:56:44;;;;;;;2.70;1.50;;;19.70;87.00;;;;;;5033015;28;20382;-57
2021/05/27 11:59:10;;;;;;;7.50;1.53;;;19.10;88.70;;;;;;5033434;28;20889;-53
2021/05/27 12:01:36;;;;;;;3.70;1.97;;;18.70;89.30;;;;;;5033052;28;20802;-57
2021/05/27 12:04:06;;;;;;;3.50;1.60;;;18.60;90.80;;;;;;5034047;28;20402;-54
2021/05/27 12:06:50;;;;;;;1.83;1.33;;;18.30;90.70;;;;;;5033124;28;20181;-56
2021/05/27 12:09:36;;;;;;;1.13;0.90;;;18.50;90.80;;;;;;5032745;28;20418;-55
2021/05/27 12:12:13;;;;;;;2.10;1.40;;;18.50;90.30;;;;;;5032161;28;20451;-56
2021/05/27 12:14:53;;;;;;;2.60;1.30;;;18.10;91.50;;;;;;5033280;28;20805;-56
2021/05/27 12:17:21;;;;;;;1.80;1.40;;;18.30;91.90;;;;;;5033123;28;20386;-56
2021/05/27 12:19:52;;;;;;;4.40;1.77;;;18.50;91.30;;;;;;5032990;28;20426;-55
2021/05/27 12:22:18;;;;;;;1.60;1.50;;;18.50;91.50;;;;;;5032545;28;20389;-57
2021/05/27 12:24:44;;;;;;;1.73;1.27;;;20.60;90.10;;;;;;5032553;28;20433;-56
2021/05/27 12:27:10;;;;;;;4.07;1.10;;;21.70;83.00;;;;;;5032509;28;20402;-55
2021/05/27 12:29:36;;;;;;;2.13;1.50;;;22.10;82.30;;;;;;5032114;28;20445;-55
2021/05/27 12:32:08;;;;;;;2.30;1.70;;;22.40;81.00;;;;;;5035485;28;20432;-57
2021/05/27 12:34:39;;;;;;;1.70;1.60;;;24.00;75.50;;;;;;5036537;28;20266;-57
2021/05/27 12:37:06;;;;;;;1.87;1.10;;;23.50;76.50;;;;;;5036867;28;20440;-54
2021/05/27 12:39:40;;;;;;;1.57;1.30;;;22.50;78.00;;;;;;5036360;28;20496;-58
2021/05/27 12:42:09;;;;;;;2.60;1.50;;;21.40;79.30;;;;;;5036814;28;20874;-57
2021/05/27 12:44:42;;;;;;;1.93;1.50;;;20.80;82.90;;;;;;5036780;28;20460;-56
2021/05/27 12:47:16;;;;;;;1.33;1.10;;;20.40;81.60;;;;;;5035621;28;20410;-56
2021/05/27 12:49:43;;;;;;;1.47;1.20;;;20.50;84.90;;;;;;5036558;28;20422;-53
2021/05/27 12:52:08;;;;;;;2.50;1.33;;;20.60;80.90;;;;;;5036555;28;20455;-56
2021/05/27 12:54:34;;;;;;;2.30;1.20;;;21.70;80.60;;;;;;5035548;28;20405;-55
2021/05/27 12:57:06;;;;;;;1.83;1.07;;;23.00;79.00;;;;;;5036771;28;20199;-55
2021/05/27 12:59:32;;;;;;;1.57;1.10;;;22.40;79.70;;;;;;5035335;28;20195;-55
2021/05/27 13:02:00;;;;;;;2.13;1.17;;;21.50;79.50;;;;;;5035754;28;20816;-56
2021/05/27 13:04:32;;;;;;;2.00;1.37;;;21.10;82.10;;;;;;5036419;28;20501;-55
2021/05/27 13:07:24;;;;;;;2.57;1.30;;;20.20;80.90;;;;;;5036595;28;20755;-52
2021/05/27 13:09:54;;;;;;;4.30;1.23;;;19.60;82.00;;;;;;5033578;28;20462;-55